createdAt,value
2017-02-28T00:00:10.606Z,982.73
2017-02-28T00:01:10.585Z,982.76
2017-02-28T00:02:10.559Z,982.62
2017-02-28T00:03:10.539Z,982.69
2017-02-28T00:04:10.513Z,982.7
2017-02-28T00:05:10.492Z,982.73
2017-02-28T00:06:10.470Z,982.71
2017-02-28T00:07:10.447Z,982.79
2017-02-28T00:08:10.424Z,982.77
2017-02-28T00:09:10.411Z,982.62
2017-02-28T00:10:10.381Z,982.61
2017-02-28T00:11:10.360Z,982.7
2017-02-28T00:12:10.337Z,982.8
2017-02-28T00:13:10.317Z,982.73
2017-02-28T00:14:10.297Z,982.79
2017-02-28T00:15:10.271Z,982.67
2017-02-28T00:16:10.246Z,982.79
2017-02-28T00:17:10.227Z,982.75
2017-02-28T00:18:10.206Z,982.82
2017-02-28T00:19:10.182Z,982.82
2017-02-28T00:20:10.165Z,982.74
2017-02-28T00:21:10.146Z,982.72
2017-02-28T00:22:10.122Z,982.71
2017-02-28T00:23:10.092Z,982.61
2017-02-28T00:24:10.076Z,982.63
2017-02-28T00:25:10.052Z,982.68
2017-02-28T00:26:10.032Z,982.72
2017-02-28T00:27:10.007Z,982.61
2017-02-28T00:28:09.991Z,982.65
2017-02-28T00:29:09.967Z,982.51
2017-02-28T00:30:09.939Z,982.57
2017-02-28T00:31:09.918Z,982.59
2017-02-28T00:32:09.899Z,982.52
2017-02-28T00:33:09.878Z,982.63
2017-02-28T00:34:09.854Z,982.55
2017-02-28T00:35:09.828Z,982.57
2017-02-28T00:36:09.805Z,982.61
2017-02-28T00:37:09.786Z,982.58
2017-02-28T00:38:09.765Z,982.56
2017-02-28T00:39:09.744Z,982.58
2017-02-28T00:40:09.721Z,982.41
2017-02-28T00:41:09.695Z,982.23
2017-02-28T00:42:09.683Z,982.25
2017-02-28T00:43:09.654Z,982.26
2017-02-28T00:44:09.632Z,982.02
2017-02-28T00:45:09.609Z,982.24
2017-02-28T00:46:09.591Z,982.39
2017-02-28T00:47:09.563Z,982.35
2017-02-28T00:48:09.544Z,982.31
2017-02-28T00:49:09.530Z,982.39
2017-02-28T00:50:09.501Z,982.46
2017-02-28T00:51:09.481Z,982.48
2017-02-28T00:52:09.458Z,982.44
2017-02-28T00:53:09.436Z,982.39
2017-02-28T00:54:09.414Z,982.27
2017-02-28T00:55:09.389Z,982.35
2017-02-28T00:56:09.366Z,982.47
2017-02-28T00:57:09.343Z,982.36
2017-02-28T00:58:09.319Z,982.44
2017-02-28T00:59:09.304Z,982.46
2017-02-28T01:00:09.281Z,982.46
2017-02-28T01:01:09.255Z,982.37
2017-02-28T01:02:09.232Z,982.4
2017-02-28T01:03:09.216Z,982.4
2017-02-28T01:04:09.191Z,982.39
2017-02-28T01:05:09.172Z,982.32
2017-02-28T01:06:09.140Z,982.34
2017-02-28T01:07:09.119Z,982.42
2017-02-28T01:08:09.101Z,982.34
2017-02-28T01:09:09.078Z,982.47
2017-02-28T01:10:09.059Z,982.52
2017-02-28T01:11:09.028Z,982.53
2017-02-28T01:12:09.008Z,982.53
2017-02-28T01:13:08.990Z,982.62
2017-02-28T01:14:08.961Z,982.63
2017-02-28T01:15:08.937Z,982.58
2017-02-28T01:16:08.917Z,982.6
2017-02-28T01:17:08.896Z,982.54
2017-02-28T01:18:08.869Z,982.55
2017-02-28T01:19:08.854Z,982.53
2017-02-28T01:20:08.823Z,982.44
2017-02-28T01:21:08.801Z,982.44
2017-02-28T01:22:08.780Z,982.3
2017-02-28T01:23:08.762Z,982.23
2017-02-28T01:24:08.732Z,982.21
2017-02-28T01:25:08.712Z,982.23
2017-02-28T01:26:08.690Z,982.23
2017-02-28T01:27:08.665Z,982.19
2017-02-28T01:28:08.648Z,982.23
2017-02-28T01:29:08.617Z,982.38
2017-02-28T01:30:08.599Z,982.52
2017-02-28T01:31:08.575Z,982.51
2017-02-28T01:32:08.549Z,982.52
2017-02-28T01:33:08.526Z,982.49
2017-02-28T01:34:08.513Z,982.53
2017-02-28T01:35:08.483Z,982.52
2017-02-28T01:36:08.475Z,982.52
2017-02-28T01:37:08.442Z,982.46
2017-02-28T01:38:08.415Z,982.5
2017-02-28T01:39:08.394Z,982.5
2017-02-28T01:40:08.373Z,982.53
2017-02-28T01:41:08.344Z,982.55
2017-02-28T01:42:08.322Z,982.59
2017-02-28T01:43:08.299Z,982.62
2017-02-28T01:44:08.283Z,982.57
2017-02-28T01:45:08.265Z,982.54
2017-02-28T01:46:08.238Z,982.54
2017-02-28T01:47:08.210Z,982.56
2017-02-28T01:48:08.190Z,982.49
2017-02-28T01:49:08.165Z,982.44
2017-02-28T01:50:08.141Z,982.49
2017-02-28T01:51:08.117Z,982.36
2017-02-28T01:52:08.103Z,982.38
2017-02-28T01:53:08.076Z,982.34
2017-02-28T01:54:08.046Z,982.36
2017-02-28T01:55:08.025Z,982.37
2017-02-28T01:56:08.004Z,982.41
2017-02-28T01:57:08.002Z,982.38
2017-02-28T01:58:07.960Z,982.34
2017-02-28T01:59:07.933Z,982.3
2017-02-28T02:00:07.916Z,982.21
2017-02-28T02:01:07.888Z,982.14
2017-02-28T02:02:07.864Z,982.1
2017-02-28T02:03:07.840Z,982.13
2017-02-28T02:04:07.818Z,982.14
2017-02-28T02:05:07.793Z,982.13
2017-02-28T02:06:07.778Z,982.2
2017-02-28T02:07:07.749Z,982.19
2017-02-28T02:08:07.729Z,982.24
2017-02-28T02:09:07.707Z,982.24
2017-02-28T02:10:07.681Z,982.22
2017-02-28T02:11:07.659Z,982.22
2017-02-28T02:12:07.634Z,982.16
2017-02-28T02:13:07.684Z,982.15
2017-02-28T02:14:07.587Z,982.18
2017-02-28T02:15:07.572Z,982.12
2017-02-28T02:16:07.540Z,982.12
2017-02-28T02:17:07.540Z,982.07
2017-02-28T02:18:07.503Z,982.07
2017-02-28T02:19:07.476Z,982.11
2017-02-28T02:20:07.450Z,982.21
2017-02-28T02:21:07.546Z,982.24
2017-02-28T02:22:07.408Z,982.23
2017-02-28T02:23:07.500Z,982.23
2017-02-28T02:24:07.360Z,982.19
2017-02-28T02:25:07.343Z,982.3
2017-02-28T02:26:07.313Z,982.31
2017-02-28T02:27:07.290Z,982.38
2017-02-28T02:28:07.620Z,982.37
2017-02-28T02:29:07.245Z,982.41
2017-02-28T02:30:07.225Z,982.31
2017-02-28T02:31:07.205Z,982.31
2017-02-28T02:32:07.175Z,982.28
2017-02-28T02:33:07.153Z,982.23
2017-02-28T02:34:07.134Z,982.26
2017-02-28T02:35:07.112Z,982.41
2017-02-28T02:36:07.084Z,982.52
2017-02-28T02:37:07.061Z,982.67
2017-02-28T02:38:07.037Z,982.71
2017-02-28T02:39:07.011Z,982.89
2017-02-28T02:40:06.990Z,982.97
2017-02-28T02:41:06.970Z,982.88
2017-02-28T02:42:06.947Z,982.8
2017-02-28T02:43:06.928Z,982.67
2017-02-28T02:44:06.898Z,982.77
2017-02-28T02:45:06.872Z,982.64
2017-02-28T02:46:06.849Z,982.59
2017-02-28T02:47:06.826Z,982.56
2017-02-28T02:48:06.805Z,982.54
2017-02-28T02:49:06.780Z,982.46
2017-02-28T02:50:06.765Z,982.37
2017-02-28T02:51:06.734Z,982.36
2017-02-28T02:52:06.713Z,982.31
2017-02-28T02:53:06.693Z,982.33
2017-02-28T02:54:06.661Z,982.33
2017-02-28T02:55:06.641Z,982.33
2017-02-28T02:56:06.619Z,982.27
2017-02-28T02:57:06.600Z,982.31
2017-02-28T02:58:06.570Z,982.37
2017-02-28T02:59:06.549Z,982.42
2017-02-28T03:00:06.522Z,982.44
2017-02-28T03:01:06.499Z,982.34
2017-02-28T03:02:06.478Z,982.33
2017-02-28T03:03:06.503Z,982.4
2017-02-28T03:04:06.437Z,982.37
2017-02-28T03:05:06.407Z,982.37
2017-02-28T03:06:06.384Z,982.39
2017-02-28T03:07:06.361Z,982.49
2017-02-28T03:08:06.334Z,982.43
2017-02-28T03:09:06.314Z,982.56
2017-02-28T03:10:06.290Z,982.47
2017-02-28T03:11:06.261Z,982.37
2017-02-28T03:12:06.243Z,982.37
2017-02-28T03:13:06.215Z,982.37
2017-02-28T03:14:06.192Z,982.4
2017-02-28T03:15:06.167Z,982.45
2017-02-28T03:16:06.145Z,982.45
2017-02-28T03:17:06.120Z,982.46
2017-02-28T03:18:06.095Z,982.42
2017-02-28T03:19:06.079Z,982.54
2017-02-28T03:20:06.048Z,982.55
2017-02-28T03:21:06.031Z,982.55
2017-02-28T03:22:05.996Z,982.58
2017-02-28T03:23:05.977Z,982.46
2017-02-28T03:24:05.950Z,982.57
2017-02-28T03:25:05.933Z,982.55
2017-02-28T03:26:05.904Z,982.53
2017-02-28T03:27:05.882Z,982.57
2017-02-28T03:28:05.855Z,982.45
2017-02-28T03:29:05.833Z,982.6
2017-02-28T03:30:05.811Z,982.66
2017-02-28T03:31:05.789Z,982.6
2017-02-28T03:32:05.762Z,982.64
2017-02-28T03:33:05.741Z,982.64
2017-02-28T03:34:05.720Z,982.63
2017-02-28T03:35:05.690Z,982.62
2017-02-28T03:36:05.664Z,982.58
2017-02-28T03:37:05.648Z,982.57
2017-02-28T03:38:05.616Z,982.58
2017-02-28T03:39:05.597Z,982.54
2017-02-28T03:40:05.566Z,982.56
2017-02-28T03:41:05.546Z,982.48
2017-02-28T03:42:05.518Z,982.61
2017-02-28T03:43:05.495Z,982.44
2017-02-28T03:44:05.523Z,982.38
2017-02-28T03:45:05.449Z,982.43
2017-02-28T03:46:05.434Z,982.48
2017-02-28T03:47:05.401Z,982.48
2017-02-28T03:48:05.430Z,982.38
2017-02-28T03:49:05.350Z,982.46
2017-02-28T03:50:05.376Z,982.4
2017-02-28T03:51:05.300Z,982.39
2017-02-28T03:52:05.276Z,982.43
2017-02-28T03:53:05.259Z,982.33
2017-02-28T03:54:05.238Z,982.37
2017-02-28T03:55:05.207Z,982.36
2017-02-28T03:56:05.209Z,982.31
2017-02-28T03:57:05.158Z,982.35
2017-02-28T03:58:05.236Z,982.34
2017-02-28T03:59:05.116Z,982.41
2017-02-28T04:00:05.145Z,982.43
2017-02-28T04:01:05.075Z,982.34
2017-02-28T04:02:05.044Z,982.37
2017-02-28T04:03:05.015Z,982.34
2017-02-28T04:04:04.993Z,982.38
2017-02-28T04:05:04.962Z,982.33
2017-02-28T04:06:04.941Z,982.41
2017-02-28T04:07:04.915Z,982.41
2017-02-28T04:08:04.893Z,982.42
2017-02-28T04:09:04.873Z,982.39
2017-02-28T04:10:04.843Z,982.46
2017-02-28T04:11:04.826Z,982.44
2017-02-28T04:12:04.799Z,982.48
2017-02-28T04:13:04.771Z,982.43
2017-02-28T04:14:04.747Z,982.39
2017-02-28T04:15:04.728Z,982.45
2017-02-28T04:16:04.697Z,982.43
2017-02-28T04:17:04.670Z,982.45
2017-02-28T04:18:04.646Z,982.34
2017-02-28T04:19:04.624Z,982.4
2017-02-28T04:20:04.606Z,982.26
2017-02-28T04:21:04.574Z,982.59
2017-02-28T04:22:04.554Z,982.36
2017-02-28T04:23:04.536Z,982.46
2017-02-28T04:24:04.504Z,982.4
2017-02-28T04:25:04.478Z,982.38
2017-02-28T04:26:04.452Z,982.47
2017-02-28T04:27:04.432Z,982.5
2017-02-28T04:28:04.412Z,982.45
2017-02-28T04:29:04.380Z,982.46
2017-02-28T04:30:04.360Z,982.48
2017-02-28T04:31:04.588Z,982.54
2017-02-28T04:32:04.310Z,982.56
2017-02-28T04:33:04.284Z,982.53
2017-02-28T04:34:04.266Z,982.42
2017-02-28T04:35:04.236Z,982.54
2017-02-28T04:36:04.218Z,982.49
2017-02-28T04:37:04.188Z,982.5
2017-02-28T04:38:04.167Z,982.54
2017-02-28T04:39:04.147Z,982.47
2017-02-28T04:40:04.116Z,982.55
2017-02-28T04:41:04.097Z,982.58
2017-02-28T04:42:04.074Z,982.62
2017-02-28T04:43:04.051Z,982.56
2017-02-28T04:44:04.017Z,982.58
2017-02-28T04:45:03.993Z,982.64
2017-02-28T04:46:03.973Z,982.62
2017-02-28T04:47:03.944Z,982.51
2017-02-28T04:48:03.921Z,982.66
2017-02-28T04:49:03.900Z,982.72
2017-02-28T04:50:03.881Z,982.59
2017-02-28T04:51:03.851Z,982.63
2017-02-28T04:52:03.830Z,982.68
2017-02-28T04:53:03.802Z,982.63
2017-02-28T04:54:03.779Z,982.63
2017-02-28T04:55:03.762Z,982.65
2017-02-28T04:56:03.728Z,982.67
2017-02-28T04:57:03.704Z,982.65
2017-02-28T04:58:03.686Z,982.66
2017-02-28T04:59:03.661Z,982.71
2017-02-28T05:00:03.631Z,982.63
2017-02-28T05:01:03.609Z,982.69
2017-02-28T05:02:03.585Z,982.71
2017-02-28T05:03:03.569Z,982.76
2017-02-28T05:04:03.539Z,982.71
2017-02-28T05:05:03.511Z,982.64
2017-02-28T05:06:03.489Z,982.7
2017-02-28T05:07:03.463Z,982.72
2017-02-28T05:08:03.440Z,982.71
2017-02-28T05:09:03.419Z,982.72
2017-02-28T05:10:03.389Z,982.72
2017-02-28T05:11:03.371Z,982.61
2017-02-28T05:12:03.340Z,982.71
2017-02-28T05:13:03.372Z,982.7
2017-02-28T05:14:03.300Z,982.66
2017-02-28T05:15:03.273Z,982.69
2017-02-28T05:16:03.247Z,982.65
2017-02-28T05:17:03.277Z,982.73
2017-02-28T05:18:03.204Z,982.64
2017-02-28T05:19:03.175Z,982.64
2017-02-28T05:20:03.153Z,982.57
2017-02-28T05:21:03.125Z,982.55
2017-02-28T05:22:03.105Z,982.58
2017-02-28T05:23:03.177Z,982.7
2017-02-28T05:24:03.057Z,982.61
2017-02-28T05:25:03.079Z,982.65
2017-02-28T05:26:03.011Z,982.68
2017-02-28T05:27:02.992Z,982.75
2017-02-28T05:28:02.965Z,982.69
2017-02-28T05:29:02.987Z,982.72
2017-02-28T05:30:02.911Z,982.69
2017-02-28T05:31:02.891Z,982.77
2017-02-28T05:32:02.860Z,982.79
2017-02-28T05:33:02.904Z,982.78
2017-02-28T05:34:02.818Z,982.78
2017-02-28T05:35:02.798Z,982.77
2017-02-28T05:36:02.783Z,982.85
2017-02-28T05:37:02.741Z,982.76
2017-02-28T05:38:02.718Z,982.83
2017-02-28T05:39:02.702Z,982.85
2017-02-28T05:40:02.669Z,982.84
2017-02-28T05:41:02.646Z,982.82
2017-02-28T05:42:02.624Z,982.73
2017-02-28T05:43:02.599Z,982.79
2017-02-28T05:44:02.575Z,982.77
2017-02-28T05:45:02.551Z,982.77
2017-02-28T05:46:02.524Z,982.79
2017-02-28T05:47:02.503Z,982.83
2017-02-28T05:48:02.483Z,982.87
2017-02-28T05:49:02.454Z,982.78
2017-02-28T05:50:02.433Z,982.87
2017-02-28T05:51:02.413Z,982.79
2017-02-28T05:52:02.382Z,982.8
2017-02-28T05:53:02.356Z,982.84
2017-02-28T05:54:02.338Z,982.8
2017-02-28T05:55:02.309Z,982.76
2017-02-28T05:56:02.289Z,982.77
2017-02-28T05:57:02.268Z,982.7
2017-02-28T05:58:02.238Z,982.8
2017-02-28T05:59:02.212Z,982.85
2017-02-28T06:00:02.188Z,982.71
2017-02-28T06:01:02.167Z,982.81
2017-02-28T06:02:02.146Z,982.77
2017-02-28T06:03:02.119Z,982.77
2017-02-28T06:04:02.095Z,982.81
2017-02-28T06:05:02.074Z,982.84
2017-02-28T06:06:02.044Z,982.82
2017-02-28T06:07:02.019Z,982.82
2017-02-28T06:08:02.007Z,982.84
2017-02-28T06:09:01.972Z,982.94
2017-02-28T06:10:01.951Z,983.13
2017-02-28T06:11:01.927Z,982.91
2017-02-28T06:12:01.903Z,982.92
2017-02-28T06:13:01.880Z,983.02
2017-02-28T06:14:01.852Z,983.09
2017-02-28T06:15:01.830Z,982.89
2017-02-28T06:16:01.809Z,982.88
2017-02-28T06:17:01.778Z,982.82
2017-02-28T06:18:01.758Z,982.87
2017-02-28T06:19:01.737Z,982.92
2017-02-28T06:20:01.707Z,983
2017-02-28T06:21:01.681Z,982.92
2017-02-28T06:22:01.658Z,982.75
2017-02-28T06:23:01.634Z,983.01
2017-02-28T06:24:01.614Z,982.95
2017-02-28T06:25:01.596Z,983.01
2017-02-28T06:26:01.564Z,982.95
2017-02-28T06:27:01.551Z,983.12
2017-02-28T06:28:01.514Z,982.94
2017-02-28T06:29:01.492Z,983.06
2017-02-28T06:30:01.471Z,982.93
2017-02-28T06:31:01.441Z,983.03
2017-02-28T06:32:01.420Z,982.93
2017-02-28T06:33:01.400Z,982.96
2017-02-28T06:34:01.371Z,983.03
2017-02-28T06:35:01.351Z,983.11
2017-02-28T06:36:01.324Z,983.06
2017-02-28T06:37:01.305Z,983.1
2017-02-28T06:38:01.275Z,983.02
2017-02-28T06:39:01.252Z,983.12
2017-02-28T06:40:01.227Z,983.1
2017-02-28T06:41:01.200Z,983.12
2017-02-28T06:42:01.174Z,983.13
2017-02-28T06:43:01.154Z,983.23
2017-02-28T06:44:01.128Z,983.2
2017-02-28T06:45:01.103Z,983.11
2017-02-28T06:46:01.079Z,983.17
2017-02-28T06:47:01.061Z,983.12
2017-02-28T06:48:01.032Z,983.18
2017-02-28T06:49:01.011Z,983.07
2017-02-28T06:50:00.989Z,983.2
2017-02-28T06:51:00.960Z,983.17
2017-02-28T06:52:00.940Z,983.19
2017-02-28T06:53:00.917Z,983.26
2017-02-28T06:54:00.887Z,983.11
2017-02-28T06:55:00.869Z,983.19
2017-02-28T06:56:00.847Z,983.12
2017-02-28T06:57:00.816Z,983.16
2017-02-28T06:58:00.797Z,983.09
2017-02-28T06:59:00.778Z,983.18
2017-02-28T07:00:00.745Z,983.14
2017-02-28T07:01:00.723Z,983.06
2017-02-28T07:02:00.705Z,983.1
2017-02-28T07:03:00.674Z,983.15
2017-02-28T07:04:00.647Z,983.07
2017-02-28T07:05:00.632Z,983.08
2017-02-28T07:06:00.599Z,983.1
2017-02-28T07:07:00.582Z,983.15
2017-02-28T07:08:00.561Z,983.17
2017-02-28T07:09:00.531Z,983.04
2017-02-28T07:10:00.509Z,983.12
2017-02-28T07:11:00.482Z,983.14
2017-02-28T07:12:00.458Z,983.17
2017-02-28T07:13:00.438Z,983.18
2017-02-28T07:14:00.413Z,983.09
2017-02-28T07:15:00.399Z,983.36
2017-02-28T07:16:00.369Z,983.16
2017-02-28T07:17:00.342Z,983.22
2017-02-28T07:18:00.317Z,983.16
2017-02-28T07:19:00.293Z,983.14
2017-02-28T07:20:00.271Z,983.32
2017-02-28T07:21:00.244Z,983.19
2017-02-28T07:22:00.229Z,983.12
2017-02-28T07:23:00.196Z,983.26
2017-02-28T07:24:00.179Z,983.18
2017-02-28T07:25:00.149Z,983.22
2017-02-28T07:26:00.124Z,983.38
2017-02-28T07:27:00.101Z,983.24
2017-02-28T07:28:00.084Z,983.14
2017-02-28T07:29:00.059Z,983.22
2017-02-28T07:30:00.029Z,983.24
2017-02-28T07:31:00.010Z,983.18
2017-02-28T07:31:59.979Z,983.31
2017-02-28T07:32:59.957Z,983.28
2017-02-28T07:33:59.936Z,983.26
2017-02-28T07:34:59.909Z,983.25
2017-02-28T07:35:59.884Z,983.28
2017-02-28T07:36:59.873Z,983.25
2017-02-28T07:37:59.835Z,983.53
2017-02-28T07:38:59.814Z,983.37
2017-02-28T07:39:59.803Z,983.31
2017-02-28T07:40:59.763Z,983.19
2017-02-28T07:41:59.742Z,983.19
2017-02-28T07:42:59.715Z,983.3
2017-02-28T07:43:59.692Z,983.29
2017-02-28T07:44:59.671Z,983.23
2017-02-28T07:45:59.643Z,983.26
2017-02-28T07:46:59.617Z,983.21
2017-02-28T07:47:59.599Z,983.36
2017-02-28T07:48:59.577Z,983.18
2017-02-28T07:49:59.548Z,983.34
2017-02-28T07:50:59.526Z,983.28
2017-02-28T07:51:59.508Z,983.32
2017-02-28T07:52:59.477Z,983.35
2017-02-28T07:53:59.455Z,983.32
2017-02-28T07:54:59.427Z,983.35
2017-02-28T07:55:59.404Z,983.21
2017-02-28T07:56:59.382Z,983.31
2017-02-28T07:57:59.363Z,983.44
2017-02-28T07:58:59.332Z,983.45
2017-02-28T07:59:59.308Z,983.36
2017-02-28T08:00:59.283Z,983.35
2017-02-28T08:01:59.268Z,983.31
2017-02-28T08:02:59.237Z,983.35
2017-02-28T08:03:59.215Z,983.37
2017-02-28T08:04:59.190Z,983.43
2017-02-28T08:05:59.165Z,983.43
2017-02-28T08:06:59.142Z,983.44
2017-02-28T08:07:59.128Z,983.46
2017-02-28T08:08:59.096Z,983.35
2017-02-28T08:09:59.074Z,983.59
2017-02-28T08:10:59.045Z,983.5
2017-02-28T08:11:59.021Z,983.58
2017-02-28T08:12:59.003Z,983.48
2017-02-28T08:13:58.974Z,983.6
2017-02-28T08:14:58.951Z,983.55
2017-02-28T08:15:58.927Z,983.49
2017-02-28T08:16:58.905Z,983.55
2017-02-28T08:17:58.881Z,983.54
2017-02-28T08:18:58.857Z,983.69
2017-02-28T08:19:58.840Z,983.61
2017-02-28T08:20:58.810Z,983.58
2017-02-28T08:21:58.795Z,983.57
2017-02-28T08:22:58.763Z,983.6
2017-02-28T08:23:58.738Z,983.59
2017-02-28T08:24:58.719Z,983.71
2017-02-28T08:25:58.691Z,983.65
2017-02-28T08:26:58.679Z,983.62
2017-02-28T08:27:58.646Z,983.63
2017-02-28T08:28:58.627Z,983.66
2017-02-28T08:29:58.606Z,983.52
2017-02-28T08:30:58.581Z,983.64
2017-02-28T08:31:58.553Z,983.8
2017-02-28T08:32:58.535Z,983.84
2017-02-28T08:33:58.509Z,983.68
2017-02-28T08:34:58.481Z,983.66
2017-02-28T08:35:58.458Z,983.58
2017-02-28T08:36:58.439Z,983.63
2017-02-28T08:37:58.410Z,983.73
2017-02-28T08:38:58.389Z,983.56
2017-02-28T08:39:58.366Z,983.6
2017-02-28T08:40:58.338Z,983.62
2017-02-28T08:41:58.321Z,983.54
2017-02-28T08:42:58.294Z,983.62
2017-02-28T08:43:58.271Z,983.55
2017-02-28T08:44:58.245Z,983.49
2017-02-28T08:45:58.227Z,983.56
2017-02-28T08:46:58.199Z,983.59
2017-02-28T08:47:58.177Z,983.56
2017-02-28T08:48:58.152Z,983.54
2017-02-28T08:49:58.128Z,983.61
2017-02-28T08:50:58.102Z,983.58
2017-02-28T08:51:58.084Z,983.59
2017-02-28T08:52:58.056Z,983.58
2017-02-28T08:53:58.032Z,983.72
2017-02-28T08:54:58.011Z,983.48
2017-02-28T08:55:57.986Z,983.82
2017-02-28T08:56:58.019Z,983.66
2017-02-28T08:57:57.940Z,983.66
2017-02-28T08:58:58.018Z,983.7
2017-02-28T08:59:57.891Z,983.69
2017-02-28T09:00:57.916Z,983.66
2017-02-28T09:01:57.847Z,983.62
2017-02-28T09:02:57.824Z,983.61
2017-02-28T09:03:57.793Z,983.67
2017-02-28T09:04:57.771Z,983.56
2017-02-28T09:05:57.749Z,983.73
2017-02-28T09:06:57.725Z,983.71
2017-02-28T09:07:57.703Z,983.79
2017-02-28T09:08:57.679Z,983.7
2017-02-28T09:09:57.658Z,983.66
2017-02-28T09:10:57.629Z,983.66
2017-02-28T09:11:57.601Z,983.72
2017-02-28T09:12:57.682Z,983.71
2017-02-28T09:13:57.555Z,983.73
2017-02-28T09:14:57.534Z,983.69
2017-02-28T09:15:57.510Z,983.68
2017-02-28T09:16:57.495Z,983.91
2017-02-28T09:17:57.463Z,983.8
2017-02-28T09:18:57.447Z,983.69
2017-02-28T09:19:57.414Z,983.78
2017-02-28T09:20:57.388Z,983.7
2017-02-28T09:21:57.364Z,983.85
2017-02-28T09:22:57.341Z,983.69
2017-02-28T09:23:57.314Z,983.69
2017-02-28T09:24:57.294Z,983.75
2017-02-28T09:25:57.273Z,983.65
2017-02-28T09:26:57.253Z,983.66
2017-02-28T09:27:57.222Z,983.66
2017-02-28T09:28:57.196Z,983.63
2017-02-28T09:29:57.178Z,983.59
2017-02-28T09:30:57.155Z,983.6
2017-02-28T09:31:57.126Z,983.57
2017-02-28T09:32:57.107Z,983.59
2017-02-28T09:33:57.079Z,983.92
2017-02-28T09:34:57.060Z,983.68
2017-02-28T09:35:57.034Z,983.61
2017-02-28T09:36:57.010Z,983.62
2017-02-28T09:37:56.989Z,983.5
2017-02-28T09:38:56.968Z,983.5
2017-02-28T09:39:56.947Z,983.62
2017-02-28T09:40:56.917Z,983.66
2017-02-28T09:41:56.896Z,983.59
2017-02-28T09:42:56.902Z,983.58
2017-02-28T09:43:56.856Z,983.56
2017-02-28T09:44:56.825Z,983.62
2017-02-28T09:45:56.799Z,983.6
2017-02-28T09:46:56.785Z,983.51
2017-02-28T09:47:56.754Z,983.66
2017-02-28T09:48:56.734Z,983.64
2017-02-28T09:49:56.712Z,983.71
2017-02-28T09:50:56.691Z,983.66
2017-02-28T09:51:56.666Z,983.64
2017-02-28T09:52:56.646Z,983.61
2017-02-28T09:53:56.621Z,983.47
2017-02-28T09:54:56.601Z,983.49
2017-02-28T09:55:56.579Z,983.55
2017-02-28T09:56:56.558Z,983.74
2017-02-28T09:57:56.535Z,983.53
2017-02-28T09:58:56.517Z,983.6
2017-02-28T09:59:56.507Z,983.65
2017-02-28T10:00:56.475Z,983.59
2017-02-28T10:01:56.459Z,983.63
2017-02-28T10:02:56.436Z,983.55
2017-02-28T10:03:56.415Z,983.62
2017-02-28T10:04:56.395Z,983.58
2017-02-28T10:05:56.370Z,983.62
2017-02-28T10:06:56.350Z,983.59
2017-02-28T10:07:56.334Z,983.6
2017-02-28T10:08:56.312Z,983.53
2017-02-28T10:09:56.289Z,983.59
2017-02-28T10:10:56.269Z,983.6
2017-02-28T10:11:56.253Z,983.63
2017-02-28T10:12:56.224Z,983.64
2017-02-28T10:13:56.211Z,983.61
2017-02-28T10:14:56.190Z,983.58
2017-02-28T10:15:56.161Z,983.53
2017-02-28T10:16:56.139Z,983.57
2017-02-28T10:17:56.117Z,983.64
2017-02-28T10:18:56.100Z,983.55
2017-02-28T10:19:56.074Z,983.58
2017-02-28T10:20:56.053Z,983.75
2017-02-28T10:21:56.028Z,983.59
2017-02-28T10:22:56.007Z,983.59
2017-02-28T10:23:55.994Z,983.6
2017-02-28T10:24:55.964Z,983.61
2017-02-28T10:25:55.940Z,983.66
2017-02-28T10:26:55.922Z,983.73
2017-02-28T10:27:55.902Z,983.79
2017-02-28T10:28:55.877Z,983.7
2017-02-28T10:29:55.852Z,983.69
2017-02-28T10:30:55.831Z,983.7
2017-02-28T10:31:55.812Z,983.76
2017-02-28T10:32:55.801Z,983.66
2017-02-28T10:33:55.767Z,983.74
2017-02-28T10:34:55.747Z,983.69
2017-02-28T10:35:55.728Z,983.72
2017-02-28T10:36:55.708Z,983.74
2017-02-28T10:37:55.678Z,983.75
2017-02-28T10:38:55.655Z,983.79
2017-02-28T10:39:55.635Z,983.73
2017-02-28T10:40:55.609Z,983.72
2017-02-28T10:41:55.592Z,983.7
2017-02-28T10:42:55.570Z,983.86
2017-02-28T10:43:55.545Z,983.71
2017-02-28T10:44:55.524Z,983.6
2017-02-28T10:45:55.504Z,983.7
2017-02-28T10:46:55.480Z,983.77
2017-02-28T10:47:55.456Z,983.81
2017-02-28T10:48:55.431Z,983.7
2017-02-28T10:49:55.412Z,983.71
2017-02-28T10:50:55.391Z,983.68
2017-02-28T10:51:55.371Z,983.67
2017-02-28T10:52:55.344Z,983.72
2017-02-28T10:53:55.372Z,983.72
2017-02-28T10:54:55.299Z,983.74
2017-02-28T10:55:55.276Z,983.74
2017-02-28T10:56:55.257Z,983.75
2017-02-28T10:57:55.233Z,983.69
2017-02-28T10:58:55.213Z,983.67
2017-02-28T10:59:55.196Z,983.53
2017-02-28T11:00:55.178Z,983.78
2017-02-28T11:01:55.146Z,983.73
2017-02-28T11:02:55.127Z,983.69
2017-02-28T11:03:55.116Z,983.68
2017-02-28T11:04:55.080Z,983.67
2017-02-28T11:05:55.055Z,983.76
2017-02-28T11:06:55.033Z,983.91
2017-02-28T11:07:55.012Z,983.72
2017-02-28T11:08:54.991Z,983.79
2017-02-28T11:09:54.970Z,983.79
2017-02-28T11:10:54.950Z,983.82
2017-02-28T11:11:54.926Z,983.8
2017-02-28T11:12:54.903Z,983.6
2017-02-28T11:13:54.887Z,983.58
2017-02-28T11:14:54.865Z,983.8
2017-02-28T11:15:54.847Z,983.73
2017-02-28T11:16:54.822Z,983.64
2017-02-28T11:17:54.796Z,983.61
2017-02-28T11:18:54.777Z,983.5
2017-02-28T11:19:54.756Z,983.55
2017-02-28T11:20:54.736Z,983.7
2017-02-28T11:21:54.713Z,983.58
2017-02-28T11:22:54.698Z,983.68
2017-02-28T11:23:54.676Z,983.6
2017-02-28T11:24:54.653Z,983.67
2017-02-28T11:25:54.623Z,983.53
2017-02-28T11:26:54.603Z,983.52
2017-02-28T11:27:54.583Z,983.57
2017-02-28T11:28:54.563Z,983.57
2017-02-28T11:29:54.542Z,983.47
2017-02-28T11:30:54.515Z,983.53
2017-02-28T11:31:54.500Z,983.51
2017-02-28T11:32:54.472Z,983.46
2017-02-28T11:33:54.457Z,983.47
2017-02-28T11:34:54.430Z,983.43
2017-02-28T11:35:54.408Z,983.43
2017-02-28T11:36:54.385Z,983.36
2017-02-28T11:37:54.359Z,983.33
2017-02-28T11:38:54.346Z,983.36
2017-02-28T11:39:54.328Z,983.4
2017-02-28T11:40:54.297Z,983.44
2017-02-28T11:41:54.275Z,983.34
2017-02-28T11:42:54.251Z,983.39
2017-02-28T11:43:54.234Z,983.34
2017-02-28T11:44:54.214Z,983.38
2017-02-28T11:45:54.191Z,983.38
2017-02-28T11:46:54.172Z,983.35
2017-02-28T11:47:54.153Z,983.32
2017-02-28T11:48:54.124Z,983.4
2017-02-28T11:49:54.107Z,983.32
2017-02-28T11:50:54.083Z,983.29
2017-02-28T11:51:54.070Z,983.3
2017-02-28T11:52:54.040Z,983.29
2017-02-28T11:53:54.028Z,983.24
2017-02-28T11:54:54.004Z,983.22
2017-02-28T11:55:53.985Z,983.26
2017-02-28T11:56:53.960Z,983.27
2017-02-28T11:57:54.014Z,983.25
2017-02-28T11:58:53.927Z,983.17
2017-02-28T11:59:54.014Z,983.24
2017-02-28T12:00:53.887Z,983.3
2017-02-28T12:01:53.944Z,983.22
2017-02-28T12:02:53.843Z,983.16
2017-02-28T12:03:53.823Z,983.18
2017-02-28T12:04:53.805Z,983.21
2017-02-28T12:05:53.824Z,983.06
2017-02-28T12:06:53.759Z,983.13
2017-02-28T12:07:53.805Z,983.06
2017-02-28T12:08:53.720Z,983.18
2017-02-28T12:09:53.704Z,983.05
2017-02-28T12:10:53.689Z,982.99
2017-02-28T12:11:53.757Z,983.01
2017-02-28T12:12:53.639Z,983.04
2017-02-28T12:13:53.686Z,983.05
2017-02-28T12:14:53.598Z,983.08
2017-02-28T12:15:53.672Z,983.01
2017-02-28T12:16:53.562Z,982.95
2017-02-28T12:17:53.539Z,982.89
2017-02-28T12:18:53.517Z,983.13
2017-02-28T12:19:53.613Z,983.13
2017-02-28T12:20:53.487Z,983.08
2017-02-28T12:21:53.466Z,982.97
2017-02-28T12:22:53.435Z,982.97
2017-02-28T12:23:53.420Z,983.01
2017-02-28T12:24:53.405Z,982.99
2017-02-28T12:25:53.377Z,983.06
2017-02-28T12:26:53.359Z,983.1
2017-02-28T12:27:53.340Z,982.95
2017-02-28T12:28:53.319Z,982.81
2017-02-28T12:29:53.423Z,982.81